createdAt,value
2018-01-04T00:00:57.822Z,82.90
2018-01-04T00:01:57.873Z,82.30
2018-01-04T00:02:57.866Z,79.10
2018-01-04T00:03:57.999Z,82.90
2018-01-04T00:04:57.961Z,81.20
2018-01-04T00:05:57.965Z,84.10
2018-01-04T00:06:58.014Z,84.30
2018-01-04T00:07:58.060Z,82.70
2018-01-04T00:08:58.079Z,82.40
2018-01-04T00:09:58.134Z,82.40
2018-01-04T00:10:58.123Z,80.60
2018-01-04T00:11:58.185Z,79.20
2018-01-04T00:12:58.236Z,79.60
2018-01-04T00:13:58.237Z,79.30
2018-01-04T00:14:58.282Z,80.20
2018-01-04T00:15:58.319Z,81.90
2018-01-04T00:16:58.318Z,80.60
2018-01-04T00:17:58.367Z,82.10
2018-01-04T00:18:58.423Z,81.40
2018-01-04T00:19:58.409Z,80.20
2018-01-04T00:20:58.469Z,83.50
2018-01-04T00:21:58.513Z,83.60
2018-01-04T00:22:58.513Z,84.60
2018-01-04T00:23:58.565Z,84.30
2018-01-04T00:24:58.602Z,84.20
2018-01-04T00:25:58.625Z,85.10
2018-01-04T00:26:58.683Z,86.50
2018-01-04T00:27:58.754Z,82.80
2018-01-04T00:28:58.753Z,82.00
2018-01-04T00:29:58.801Z,83.40
2018-01-04T00:30:58.814Z,83.80
2018-01-04T00:31:58.845Z,86.60
2018-01-04T00:32:58.874Z,83.50
2018-01-04T00:33:58.929Z,85.00
2018-01-04T00:34:58.916Z,83.90
2018-01-04T00:35:58.982Z,85.20
2018-01-04T00:36:59.005Z,84.50
2018-01-04T00:37:59.045Z,84.30
2018-01-04T00:38:59.100Z,84.60
2018-01-04T00:39:59.134Z,84.30
2018-01-04T00:40:59.123Z,84.30
2018-01-04T00:41:59.185Z,83.00
2018-01-04T00:42:59.218Z,84.10
2018-01-04T00:43:59.237Z,84.20
2018-01-04T00:44:59.263Z,83.00
2018-01-04T00:45:59.324Z,84.10
2018-01-04T00:46:59.353Z,84.20
2018-01-04T00:47:59.368Z,82.90
2018-01-04T00:48:59.430Z,84.70
2018-01-04T00:49:59.421Z,85.40
2018-01-04T00:50:59.472Z,86.00
2018-01-04T00:51:59.534Z,84.70
2018-01-04T00:52:59.534Z,85.30
2018-01-04T00:53:59.595Z,87.10
2018-01-04T00:54:59.647Z,86.00
2018-01-04T00:55:59.643Z,85.10
2018-01-04T00:56:59.696Z,87.90
2018-01-04T00:57:59.747Z,85.50
2018-01-04T00:58:59.726Z,84.10
2018-01-04T00:59:59.780Z,86.70
2018-01-04T01:00:59.845Z,83.50
2018-01-04T01:01:59.840Z,85.80
2018-01-04T01:02:59.886Z,86.60
2018-01-04T01:03:59.920Z,84.40
2018-01-04T01:04:59.941Z,83.80
2018-01-04T01:05:59.989Z,86.30
2018-01-04T01:07:00.032Z,85.90
2018-01-04T01:08:00.041Z,87.30
2018-01-04T01:09:00.072Z,85.10
2018-01-04T01:10:00.149Z,87.80
2018-01-04T01:11:00.116Z,86.90
2018-01-04T01:12:00.201Z,85.20
2018-01-04T01:13:00.204Z,84.50
2018-01-04T01:14:00.223Z,86.50
2018-01-04T01:15:00.242Z,86.40
2018-01-04T01:16:00.312Z,88.50
2018-01-04T01:17:00.334Z,86.80
2018-01-04T01:18:00.365Z,84.90
2018-01-04T01:19:00.433Z,86.80
2018-01-04T01:20:00.422Z,89.70
2018-01-04T01:21:00.493Z,86.10
2018-01-04T01:22:00.529Z,87.40
2018-01-04T01:23:00.524Z,87.70
2018-01-04T01:24:00.571Z,90.80
2018-01-04T01:25:00.613Z,90.30
2018-01-04T01:26:00.609Z,87.70
2018-01-04T01:27:00.661Z,93.60
2018-01-04T01:28:00.738Z,94.90
2018-01-04T01:29:00.709Z,92.30
2018-01-04T01:30:00.765Z,97.70
2018-01-04T01:31:00.782Z,97.10
2018-01-04T01:32:00.815Z,100.30
2018-01-04T01:33:00.865Z,103.70
2018-01-04T01:34:00.911Z,99.90
2018-01-04T01:35:00.897Z,106.40
2018-01-04T01:36:00.975Z,103.70
2018-01-04T01:37:01.012Z,99.70
2018-01-04T01:38:01.001Z,103.60
2018-01-04T01:39:01.042Z,104.00
2018-01-04T01:40:01.086Z,103.50
2018-01-04T01:41:01.091Z,100.70
2018-01-04T01:42:01.141Z,102.80
2018-01-04T01:43:01.211Z,105.60
2018-01-04T01:44:01.185Z,102.80
2018-01-04T01:45:01.243Z,103.80
2018-01-04T01:46:01.297Z,102.00
2018-01-04T01:47:01.305Z,100.40
2018-01-04T01:48:01.344Z,98.50
2018-01-04T01:49:01.406Z,96.20
2018-01-04T01:50:01.411Z,93.90
2018-01-04T01:51:01.444Z,95.00
2018-01-04T01:52:01.473Z,93.20
2018-01-04T01:53:01.501Z,95.10
2018-01-04T01:54:01.527Z,96.10
2018-01-04T01:55:01.584Z,93.10
2018-01-04T01:56:01.585Z,90.20
2018-01-04T01:57:01.628Z,95.40
2018-01-04T01:58:01.675Z,95.50
2018-01-04T01:59:01.664Z,95.40
2018-01-04T02:00:01.719Z,95.60
2018-01-04T02:01:01.774Z,95.00
2018-01-04T02:02:01.747Z,95.60
2018-01-04T02:03:01.831Z,93.70
2018-01-04T02:04:01.855Z,96.50
2018-01-04T02:05:01.876Z,96.20
2018-01-04T02:06:01.927Z,92.40
2018-01-04T02:07:01.974Z,93.10
2018-01-04T02:08:01.968Z,94.90
2018-01-04T02:09:02.032Z,94.40
2018-01-04T02:10:02.042Z,92.20
2018-01-04T02:11:02.081Z,95.60
2018-01-04T02:12:02.122Z,96.00
2018-01-04T02:13:02.173Z,96.50
2018-01-04T02:14:02.166Z,97.70
2018-01-04T02:15:02.224Z,98.30
2018-01-04T02:16:02.468Z,101.60
2018-01-04T02:17:02.247Z,129.80
2018-01-04T02:18:02.296Z,131.60
2018-01-04T02:19:02.675Z,131.10
2018-01-04T02:20:02.359Z,135.20
2018-01-04T02:21:02.407Z,137.70
2018-01-04T02:22:02.440Z,130.30
2018-01-04T02:23:02.446Z,128.90
2018-01-04T02:24:02.490Z,129.20
2018-01-04T02:25:02.525Z,131.70
2018-01-04T02:26:02.534Z,133.00
2018-01-04T02:27:02.583Z,130.90
2018-01-04T02:28:02.626Z,135.80
2018-01-04T02:29:03.016Z,133.40
2018-01-04T02:30:02.690Z,129.50
2018-01-04T02:31:02.746Z,126.80
2018-01-04T02:32:02.726Z,129.70
2018-01-04T02:33:02.781Z,134.20
2018-01-04T02:34:02.832Z,142.30
2018-01-04T02:35:02.833Z,140.60
2018-01-04T02:36:02.864Z,138.00
2018-01-04T02:37:02.889Z,138.90
2018-01-04T02:38:02.907Z,141.30
2018-01-04T02:39:02.979Z,141.70
2018-01-04T02:40:03.033Z,143.90
2018-01-04T02:41:03.022Z,143.90
2018-01-04T02:42:03.072Z,143.60
2018-01-04T02:43:03.112Z,150.00
2018-01-04T02:44:03.105Z,145.20
2018-01-04T02:45:03.277Z,151.80
2018-01-04T02:46:03.224Z,149.10
2018-01-04T02:47:03.210Z,150.50
2018-01-04T02:48:03.243Z,152.00
2018-01-04T02:49:03.290Z,149.10
2018-01-04T02:50:03.343Z,151.30
2018-01-04T02:51:03.295Z,152.70
2018-01-04T02:52:03.352Z,156.40
2018-01-04T02:53:03.427Z,154.40
2018-01-04T02:54:03.423Z,153.10
2018-01-04T02:55:03.470Z,158.70
2018-01-04T02:56:03.497Z,158.40
2018-01-04T02:57:03.516Z,161.90
2018-01-04T02:58:03.560Z,161.40
2018-01-04T02:59:03.597Z,159.90
2018-01-04T03:00:03.659Z,167.60
2018-01-04T03:01:03.654Z,174.70
2018-01-04T03:02:03.705Z,174.30
2018-01-04T03:03:03.710Z,186.40
2018-01-04T03:04:03.736Z,169.00
2018-01-04T03:05:03.797Z,165.30
2018-01-04T03:06:03.880Z,166.10
2018-01-04T03:07:03.845Z,166.40
2018-01-04T03:08:03.873Z,166.10
2018-01-04T03:09:03.885Z,163.10
2018-01-04T03:10:03.938Z,160.20
2018-01-04T03:11:03.987Z,157.60
2018-01-04T03:12:03.960Z,158.10
2018-01-04T03:13:04.041Z,156.60
2018-01-04T03:14:04.064Z,158.10
2018-01-04T03:15:04.066Z,161.40
2018-01-04T03:16:04.123Z,166.80
2018-01-04T03:17:04.180Z,164.00
2018-01-04T03:18:04.173Z,165.00
2018-01-04T03:19:04.222Z,170.10
2018-01-04T03:20:04.255Z,167.60
2018-01-04T03:21:04.265Z,170.30
2018-01-04T03:22:04.309Z,174.60
2018-01-04T03:23:04.356Z,176.50
2018-01-04T03:24:04.368Z,182.30
2018-01-04T03:25:04.401Z,162.00
2018-01-04T03:26:04.449Z,157.20
2018-01-04T03:27:04.460Z,155.80
2018-01-04T03:28:04.480Z,158.30
2018-01-04T03:29:04.556Z,159.00
2018-01-04T03:30:04.538Z,152.90
2018-01-04T03:31:04.590Z,156.10
2018-01-04T03:32:04.652Z,154.50
2018-01-04T03:33:04.631Z,151.40
2018-01-04T03:34:04.693Z,148.10
2018-01-04T03:35:04.744Z,142.10
2018-01-04T03:36:04.729Z,142.60
2018-01-04T03:37:04.775Z,151.10
2018-01-04T03:38:04.823Z,147.20
2018-01-04T03:39:04.825Z,153.40
2018-01-04T03:40:04.889Z,140.70
2018-01-04T03:41:04.918Z,128.80
2018-01-04T03:42:04.906Z,106.50
2018-01-04T03:43:04.967Z,110.40
2018-01-04T03:44:05.021Z,112.50
2018-01-04T03:45:05.024Z,104.90
2018-01-04T03:46:05.070Z,122.20
2018-01-04T03:47:05.107Z,124.50
2018-01-04T03:48:05.138Z,132.40
2018-01-04T03:49:05.168Z,132.40
2018-01-04T03:50:05.219Z,125.90
2018-01-04T03:51:05.199Z,121.30
2018-01-04T03:52:05.239Z,112.80
2018-01-04T03:53:05.298Z,116.90
2018-01-04T03:54:05.331Z,116.30
2018-01-04T03:55:05.341Z,117.60
2018-01-04T03:56:05.382Z,121.00
2018-01-04T03:57:05.425Z,128.00
2018-01-04T03:58:05.423Z,116.10
2018-01-04T03:59:05.467Z,89.70
2018-01-04T04:00:05.644Z,79.60
2018-01-04T04:01:05.529Z,93.90
2018-01-04T04:02:05.577Z,107.90
2018-01-04T04:03:05.623Z,108.50
2018-01-04T04:04:05.628Z,91.90
2018-01-04T04:05:05.664Z,99.30
2018-01-04T04:06:05.714Z,95.50
2018-01-04T04:07:05.733Z,96.00
2018-01-04T04:08:05.761Z,88.80
2018-01-04T04:09:05.815Z,89.50
2018-01-04T04:10:05.810Z,84.10
2018-01-04T04:11:05.859Z,89.20
2018-01-04T04:12:05.911Z,88.00
2018-01-04T04:13:05.901Z,88.20
2018-01-04T04:14:05.961Z,90.80
2018-01-04T04:15:05.983Z,89.00
2018-01-04T04:16:05.992Z,85.40
2018-01-04T04:17:06.041Z,85.90
2018-01-04T04:18:06.096Z,86.20
2018-01-04T04:19:06.095Z,84.20
2018-01-04T04:20:06.145Z,85.50
2018-01-04T04:21:06.191Z,83.40
2018-01-04T04:22:06.183Z,91.50
2018-01-04T04:23:06.238Z,84.00
2018-01-04T04:24:06.256Z,82.70
2018-01-04T04:25:06.290Z,79.90
2018-01-04T04:26:06.333Z,79.10
2018-01-04T04:27:06.340Z,80.10
2018-01-04T04:28:06.397Z,81.00
2018-01-04T04:29:06.425Z,79.80
2018-01-04T04:30:08.348Z,83.30
2018-01-04T04:31:06.491Z,83.30
2018-01-04T04:32:06.530Z,83.40
2018-01-04T04:33:06.530Z,83.90
2018-01-04T04:34:06.575Z,83.60
2018-01-04T04:35:06.633Z,81.80
2018-01-04T04:36:06.628Z,83.10
2018-01-04T04:37:06.668Z,82.00
2018-01-04T04:38:06.706Z,82.60
2018-01-04T04:39:06.728Z,85.50
2018-01-04T04:40:06.768Z,80.60
2018-01-04T04:41:06.811Z,84.30
2018-01-04T04:42:06.811Z,83.40
2018-01-04T04:43:07.062Z,84.80
2018-01-04T04:44:06.909Z,84.20
2018-01-04T04:46:07.141Z,85.20
2018-01-04T04:47:06.996Z,84.60
2018-01-04T04:48:07.041Z,85.90
2018-01-04T04:49:07.035Z,84.90
2018-01-04T04:50:07.082Z,84.30
2018-01-04T04:51:07.127Z,84.60
2018-01-04T04:52:07.139Z,85.90
2018-01-04T04:53:07.176Z,84.30
2018-01-04T04:54:07.223Z,84.70
2018-01-04T04:55:07.216Z,85.10
2018-01-04T04:56:07.267Z,86.00
2018-01-04T04:57:07.315Z,80.10
2018-01-04T04:58:07.315Z,82.80
2018-01-04T04:59:07.377Z,82.60
2018-01-04T05:00:07.414Z,84.50
2018-01-04T05:01:07.408Z,82.80
2018-01-04T05:02:07.467Z,83.40
2018-01-04T05:04:07.538Z,82.20
2018-01-04T05:05:07.539Z,78.50
2018-01-04T05:06:07.588Z,79.80
2018-01-04T05:07:07.632Z,80.40
2018-01-04T05:08:07.630Z,76.50
2018-01-04T05:09:07.701Z,71.80
2018-01-04T05:10:07.743Z,70.10
2018-01-04T05:11:07.740Z,66.60
2018-01-04T05:12:07.987Z,64.70
2018-01-04T05:13:07.833Z,64.20
2018-01-04T05:14:07.820Z,64.60
2018-01-04T05:15:07.875Z,62.80
2018-01-04T05:16:07.919Z,62.90
2018-01-04T05:17:07.919Z,62.80
2018-01-04T05:18:07.969Z,62.70
2018-01-04T05:19:08.026Z,62.20
2018-01-04T05:20:08.015Z,63.50
2018-01-04T05:21:08.070Z,64.90
2018-01-04T05:22:08.124Z,63.60
2018-01-04T05:23:08.122Z,62.70
2018-01-04T05:24:08.171Z,60.60
2018-01-04T05:25:08.284Z,60.80
2018-01-04T05:26:08.271Z,59.80
2018-01-04T05:27:08.259Z,59.90
2018-01-04T05:28:08.306Z,57.20
2018-01-04T05:29:08.307Z,59.20
2018-01-04T05:30:08.362Z,57.10
2018-01-04T05:31:08.398Z,57.90
2018-01-04T05:32:08.400Z,57.40
2018-01-04T05:33:08.449Z,58.30
2018-01-04T05:34:08.508Z,56.50
2018-01-04T05:35:08.497Z,55.10
2018-01-04T05:36:08.748Z,55.70
2018-01-04T05:37:08.598Z,55.00
2018-01-04T05:38:08.801Z,54.30
2018-01-04T05:39:08.644Z,55.00
2018-01-04T05:40:08.742Z,54.80
2018-01-04T05:41:08.693Z,53.00
2018-01-04T05:42:08.743Z,54.40
2018-01-04T05:43:08.779Z,54.50
2018-01-04T05:44:08.780Z,53.40
2018-01-04T05:45:08.845Z,53.60
2018-01-04T05:46:08.877Z,52.80
2018-01-04T05:47:08.877Z,56.40
2018-01-04T05:48:08.928Z,56.60
2018-01-04T05:49:08.971Z,57.20
2018-01-04T05:50:08.981Z,58.30
2018-01-04T05:51:09.034Z,57.90
2018-01-04T05:52:09.070Z,57.10
2018-01-04T05:53:09.073Z,59.20
2018-01-04T05:54:09.132Z,56.30
2018-01-04T05:55:09.184Z,57.70
2018-01-04T05:56:09.166Z,58.20
2018-01-04T05:57:09.219Z,60.90
2018-01-04T05:58:09.266Z,57.00
2018-01-04T05:59:09.274Z,58.30
2018-01-04T06:00:09.326Z,60.20
2018-01-04T06:01:09.374Z,58.60
2018-01-04T06:02:09.362Z,57.50
2018-01-04T06:03:09.426Z,56.50
2018-01-04T06:04:09.473Z,57.10
2018-01-04T06:05:09.474Z,61.60
2018-01-04T06:06:09.526Z,60.30
2018-01-04T06:07:09.564Z,60.00
2018-01-04T06:08:09.564Z,60.30
2018-01-04T06:09:09.877Z,55.40
2018-01-04T06:10:09.667Z,56.30
2018-01-04T06:11:09.658Z,53.40
2018-01-04T06:12:09.711Z,51.90
2018-01-04T06:13:09.759Z,50.60
2018-01-04T06:14:09.757Z,51.10
2018-01-04T06:15:09.806Z,50.50
2018-01-04T06:16:09.850Z,47.60
2018-01-04T06:17:09.847Z,44.90
2018-01-04T06:18:09.902Z,44.50
2018-01-04T06:19:09.977Z,42.80
2018-01-04T06:20:09.948Z,41.90
2018-01-04T06:21:09.992Z,41.00
2018-01-04T06:22:10.934Z,38.50
2018-01-04T06:23:10.053Z,41.10
2018-01-04T06:24:10.097Z,37.50
2018-01-04T06:25:10.187Z,36.50
2018-01-04T06:26:10.152Z,34.10
2018-01-04T06:27:10.190Z,34.80
2018-01-04T06:28:10.246Z,31.70
2018-01-04T06:29:10.242Z,30.30
2018-01-04T06:30:10.293Z,26.20
2018-01-04T06:31:10.332Z,21.80
2018-01-04T06:32:10.334Z,21.50
2018-01-04T06:33:10.401Z,20.00
2018-01-04T06:34:10.434Z,19.00
2018-01-04T06:35:10.426Z,18.90
2018-01-04T06:36:10.482Z,18.30
2018-01-04T06:37:10.537Z,17.80
2018-01-04T06:38:10.536Z,17.40
2018-01-04T06:39:10.586Z,16.00
2018-01-04T06:40:10.636Z,18.30
2018-01-04T06:41:10.627Z,15.50
2018-01-04T06:42:10.685Z,17.10
2018-01-04T06:43:10.924Z,15.70
2018-01-04T06:44:10.724Z,18.00
2018-01-04T06:45:10.790Z,17.10
2018-01-04T06:46:10.832Z,15.70
2018-01-04T06:47:10.830Z,18.00
2018-01-04T06:48:10.882Z,16.40
2018-01-04T06:49:10.918Z,16.60
2018-01-04T06:51:11.006Z,12.70
2018-01-04T06:52:11.029Z,12.20
2018-01-04T06:53:11.054Z,13.30
2018-01-04T06:54:11.056Z,14.40
2018-01-04T06:55:11.116Z,16.10
2018-01-04T06:56:11.207Z,18.00
2018-01-04T06:57:11.147Z,17.90
2018-01-04T06:58:11.203Z,18.40
2018-01-04T06:59:11.263Z,18.00
2018-01-04T07:00:11.260Z,19.20
2018-01-04T07:01:11.296Z,17.50
2018-01-04T07:02:11.355Z,18.00
2018-01-04T07:03:11.352Z,17.60
2018-01-04T07:04:11.407Z,18.10
2018-01-04T07:05:11.445Z,17.50
2018-01-04T07:06:11.455Z,20.70
2018-01-04T07:07:11.496Z,17.70
2018-01-04T07:08:12.741Z,18.30
2018-01-04T07:09:11.590Z,16.00
2018-01-04T07:10:11.581Z,16.40
2018-01-04T07:11:11.636Z,15.00
2018-01-04T07:12:11.762Z,16.00
2018-01-04T07:13:11.682Z,16.60
2018-01-04T07:14:11.737Z,19.00
2018-01-04T07:15:11.791Z,19.80
2018-01-04T07:16:11.773Z,22.20
2018-01-04T07:17:11.959Z,21.60
2018-01-04T07:18:11.871Z,21.90
2018-01-04T07:19:11.882Z,21.20
2018-01-04T07:20:11.927Z,19.50
2018-01-04T07:21:11.982Z,19.40
2018-01-04T07:22:11.979Z,18.10
2018-01-04T07:23:12.228Z,17.70
2018-01-04T07:24:12.096Z,17.00
2018-01-04T07:25:12.075Z,17.60
2018-01-04T07:26:12.169Z,17.30
2018-01-04T07:27:12.176Z,16.50
2018-01-04T07:28:12.180Z,17.40
2018-01-04T07:29:12.225Z,18.90
2018-01-04T07:30:12.270Z,17.80
2018-01-04T07:31:12.260Z,14.90
2018-01-04T07:32:12.313Z,14.50
2018-01-04T07:33:12.358Z,15.20
2018-01-04T07:34:12.361Z,15.80
2018-01-04T07:35:12.423Z,15.00
2018-01-04T07:36:12.458Z,16.10
2018-01-04T07:37:12.457Z,17.60
2018-01-04T07:38:12.522Z,16.10
2018-01-04T07:39:12.566Z,15.20
2018-01-04T07:40:12.561Z,13.80
2018-01-04T07:41:12.619Z,14.20
2018-01-04T07:42:12.972Z,15.30
2018-01-04T07:43:12.658Z,14.00
2018-01-04T07:44:12.715Z,14.80
2018-01-04T07:45:12.763Z,14.60
2018-01-04T07:46:12.766Z,14.50
2018-01-04T07:47:12.818Z,15.00
2018-01-04T07:48:13.119Z,13.30
2018-01-04T07:49:12.859Z,14.60
2018-01-04T07:50:12.912Z,14.20
2018-01-04T07:51:12.965Z,13.80
2018-01-04T07:52:12.963Z,14.00
2018-01-04T07:53:13.004Z,14.10
2018-01-04T07:54:13.093Z,14.10
2018-01-04T07:55:13.060Z,13.50
2018-01-04T07:56:13.212Z,13.30
2018-01-04T07:57:13.156Z,26.30
2018-01-04T07:58:13.151Z,30.80
2018-01-04T07:59:13.204Z,59.20
2018-01-04T08:00:13.249Z,44.60
2018-01-04T08:01:13.261Z,42.40
2018-01-04T08:02:13.503Z,39.50
2018-01-04T08:03:13.346Z,39.10
2018-01-04T08:04:13.346Z,32.20
2018-01-04T08:05:13.400Z,30.90
2018-01-04T08:06:13.444Z,29.80
2018-01-04T08:07:13.451Z,28.30
2018-01-04T08:08:13.507Z,27.90
2018-01-04T08:09:13.546Z,33.10
2018-01-04T08:10:13.549Z,26.80
2018-01-04T08:11:13.574Z,22.90
2018-01-04T08:12:13.629Z,22.40
2018-01-04T08:13:13.672Z,21.10
2018-01-04T08:14:13.675Z,19.40
2018-01-04T08:15:13.740Z,19.10
2018-01-04T08:16:13.773Z,19.90
2018-01-04T08:17:13.794Z,21.40
2018-01-04T08:18:13.829Z,22.80
2018-01-04T08:19:13.872Z,19.50
2018-01-04T08:20:13.876Z,18.30
2018-01-04T08:21:13.945Z,17.60
2018-01-04T08:22:13.979Z,20.00
2018-01-04T08:23:13.975Z,18.80
2018-01-04T08:24:14.037Z,18.90
2018-01-04T08:25:14.079Z,18.80
2018-01-04T08:26:14.069Z,21.20
2018-01-04T08:27:14.121Z,18.50
2018-01-04T08:28:14.185Z,16.60
2018-01-04T08:29:14.468Z,17.10
2018-01-04T08:30:14.229Z,18.00
2018-01-04T08:31:14.465Z,18.10
2018-01-04T08:32:14.275Z,17.50
2018-01-04T08:33:14.330Z,17.60
2018-01-04T08:34:14.361Z,17.60
2018-01-04T08:35:14.377Z,18.60
2018-01-04T08:36:14.428Z,20.40
2018-01-04T08:37:14.462Z,18.90
2018-01-04T08:38:14.462Z,18.00
2018-01-04T08:39:14.517Z,17.50
2018-01-04T08:40:14.617Z,16.10
2018-01-04T08:41:14.575Z,18.50
2018-01-04T08:42:14.624Z,17.70
2018-01-04T08:43:14.641Z,17.10
2018-01-04T08:44:14.676Z,17.60
2018-01-04T08:45:14.719Z,17.00
2018-01-04T08:46:14.725Z,18.30
2018-01-04T08:47:14.774Z,20.70
2018-01-04T08:48:14.823Z,22.20
2018-01-04T08:49:14.823Z,20.90
2018-01-04T08:50:15.078Z,19.90
2018-01-04T08:51:14.940Z,23.50
2018-01-04T08:52:14.933Z,26.30
2018-01-04T08:53:14.989Z,24.20
2018-01-04T08:54:15.021Z,22.60
2018-01-04T08:55:15.039Z,21.80
2018-01-04T08:56:15.078Z,20.40
2018-01-04T08:57:15.119Z,17.70
2018-01-04T08:58:15.134Z,18.00
2018-01-04T08:59:15.332Z,17.50
2018-01-04T09:00:15.218Z,17.50
2018-01-04T09:01:15.231Z,17.70
2018-01-04T09:02:15.267Z,16.30
2018-01-04T09:03:15.318Z,15.50
2018-01-04T09:04:15.421Z,16.80
2018-01-04T09:05:15.372Z,17.50
2018-01-04T09:06:15.414Z,17.00
2018-01-04T09:07:15.432Z,15.50
2018-01-04T09:08:15.475Z,15.20
2018-01-04T09:09:15.511Z,15.60
2018-01-04T09:10:15.514Z,15.30
2018-01-04T09:11:15.780Z,14.70
2018-01-04T09:12:15.630Z,14.00
2018-01-04T09:13:15.626Z,14.10
2018-01-04T09:14:15.680Z,14.80
2018-01-04T09:15:15.715Z,14.50
2018-01-04T09:16:15.715Z,14.00
2018-01-04T09:17:15.920Z,12.60
2018-01-04T09:18:15.808Z,12.30
2018-01-04T09:19:15.817Z,13.50
2018-01-04T09:20:15.875Z,12.10
2018-01-04T09:21:15.905Z,14.10
2018-01-04T09:22:16.132Z,11.80
2018-01-04T09:23:15.968Z,13.10
2018-01-04T09:24:16.011Z,14.80
2018-01-04T09:25:16.011Z,15.10
2018-01-04T09:26:16.066Z,14.50
2018-01-04T09:27:16.120Z,13.50
2018-01-04T09:28:16.113Z,13.30
2018-01-04T09:29:16.775Z,13.90
2018-01-04T09:30:16.207Z,13.40
2018-01-04T09:31:16.221Z,13.70
2018-01-04T09:32:16.278Z,12.90
2018-01-04T09:33:16.319Z,13.80
2018-01-04T09:34:16.315Z,15.50
2018-01-04T09:35:16.360Z,17.80
2018-01-04T09:36:16.418Z,19.90
2018-01-04T09:37:16.411Z,19.40
2018-01-04T09:38:16.466Z,18.90
2018-01-04T09:39:16.518Z,19.60
2018-01-04T09:40:16.518Z,21.30
2018-01-04T09:41:16.572Z,23.00
2018-01-04T09:42:16.607Z,23.40
2018-01-04T09:43:16.609Z,26.90
2018-01-04T09:44:16.657Z,27.20
2018-01-04T09:45:16.761Z,27.20
2018-01-04T09:46:16.715Z,25.70
2018-01-04T09:47:16.758Z,24.40
2018-01-04T09:48:16.804Z,24.60
2018-01-04T09:49:16.810Z,27.30
2018-01-04T09:50:16.871Z,27.10
2018-01-04T09:51:17.912Z,26.50
2018-01-04T09:52:16.918Z,26.40
2018-01-04T09:53:16.956Z,27.10
2018-01-04T09:54:17.010Z,29.70
2018-01-04T09:55:17.004Z,25.60
2018-01-04T09:57:17.201Z,26.70
2018-01-04T09:58:17.625Z,26.80
2018-01-04T09:59:17.136Z,26.70
2018-01-04T10:00:17.190Z,25.80
2018-01-04T10:02:17.272Z,25.60
2018-01-04T10:03:17.282Z,28.30
2018-01-04T10:04:17.335Z,27.50
2018-01-04T10:05:17.380Z,25.80
2018-01-04T10:06:17.368Z,26.40
2018-01-04T10:07:17.434Z,24.50
2018-01-04T10:08:17.470Z,23.70
2018-01-04T10:09:17.466Z,22.70
2018-01-04T10:10:17.519Z,23.00
2018-01-04T10:11:17.585Z,22.80
2018-01-04T10:12:17.577Z,22.70
2018-01-04T10:13:17.628Z,23.00
2018-01-04T10:14:17.672Z,22.30
2018-01-04T10:15:17.754Z,24.20
2018-01-04T10:16:17.717Z,23.50
2018-01-04T10:17:17.764Z,26.40
2018-01-04T10:18:17.769Z,26.70
2018-01-04T10:19:17.829Z,26.50
2018-01-04T10:20:17.877Z,26.60
2018-01-04T10:21:17.882Z,27.60
2018-01-04T10:22:17.927Z,26.40
2018-01-04T10:23:18.263Z,25.30
2018-01-04T10:24:17.973Z,27.90
2018-01-04T10:25:18.022Z,25.70
2018-01-04T10:26:18.064Z,25.90
2018-01-04T10:27:18.177Z,28.10
2018-01-04T10:28:18.116Z,30.20
2018-01-04T10:29:18.217Z,30.20
2018-01-04T10:30:18.182Z,30.80
2018-01-04T10:31:18.223Z,31.50
2018-01-04T10:32:18.262Z,30.80
2018-01-04T10:33:18.271Z,31.40
2018-01-04T10:34:18.425Z,30.90
2018-01-04T10:35:18.369Z,29.20
2018-01-04T10:36:18.365Z,28.30
2018-01-04T10:37:18.457Z,28.10
2018-01-04T10:38:18.465Z,25.20
2018-01-04T10:39:18.474Z,25.40
2018-01-04T10:40:18.513Z,24.60
2018-01-04T10:41:18.572Z,23.80
2018-01-04T10:42:18.566Z,23.60
2018-01-04T10:43:20.485Z,24.90
2018-01-04T10:44:18.670Z,23.70
2018-01-04T10:45:18.660Z,24.30
2018-01-04T10:46:18.714Z,24.80
2018-01-04T10:47:18.763Z,24.30
2018-01-04T10:48:18.766Z,23.80
2018-01-04T10:49:18.828Z,22.90
2018-01-04T10:50:18.870Z,22.90
2018-01-04T10:51:18.875Z,23.20
2018-01-04T10:52:18.939Z,24.00
2018-01-04T10:53:18.967Z,24.60
2018-01-04T10:54:18.959Z,23.40
2018-01-04T10:55:19.012Z,23.60
2018-01-04T10:56:19.078Z,24.60
2018-01-04T10:57:19.119Z,26.70
2018-01-04T10:58:19.135Z,33.10
2018-01-04T10:59:19.168Z,33.40
2018-01-04T11:00:19.178Z,46.70
2018-01-04T11:01:19.269Z,46.20
2018-01-04T11:02:19.266Z,46.70
2018-01-04T11:03:19.277Z,48.00
2018-01-04T11:04:19.327Z,44.40
2018-01-04T11:05:19.362Z,45.60
2018-01-04T11:06:19.372Z,41.50
2018-01-04T11:07:19.416Z,41.80
2018-01-04T11:08:19.475Z,42.00
2018-01-04T11:09:19.465Z,40.50
2018-01-04T11:10:19.527Z,40.20
2018-01-04T11:11:19.566Z,36.90
2018-01-04T11:12:19.575Z,37.00
2018-01-04T11:13:19.617Z,36.50
2018-01-04T11:14:19.678Z,34.80
2018-01-04T11:15:19.674Z,34.70
2018-01-04T11:16:19.732Z,35.10
2018-01-04T11:17:19.759Z,37.50
2018-01-04T11:18:19.768Z,35.00
2018-01-04T11:19:19.823Z,37.90
2018-01-04T11:20:19.866Z,39.50
2018-01-04T11:21:19.867Z,39.60
2018-01-04T11:22:19.922Z,38.70
2018-01-04T11:23:19.958Z,36.30
2018-01-04T11:24:19.964Z,35.20
2018-01-04T11:25:20.011Z,36.30
2018-01-04T11:26:20.052Z,33.20
2018-01-04T11:27:20.101Z,32.60
2018-01-04T11:28:20.129Z,35.40
2018-01-04T11:29:20.153Z,33.10
2018-01-04T11:30:20.194Z,33.40
2018-01-04T11:31:20.201Z,32.90
2018-01-04T11:32:20.263Z,32.60
2018-01-04T11:33:20.289Z,33.00
2018-01-04T11:34:20.303Z,31.50
2018-01-04T11:35:20.350Z,33.30
2018-01-04T11:36:20.402Z,32.00
2018-01-04T11:37:20.399Z,30.50
2018-01-04T11:38:20.464Z,30.70
2018-01-04T11:39:20.492Z,30.50
2018-01-04T11:40:20.508Z,30.10
2018-01-04T11:41:20.564Z,30.00
2018-01-04T11:42:20.592Z,29.40
2018-01-04T11:43:20.594Z,27.70
2018-01-04T11:44:20.659Z,28.20
2018-01-04T11:45:20.689Z,27.10
2018-01-04T11:46:20.695Z,27.70
2018-01-04T11:47:21.354Z,28.00
2018-01-04T11:48:21.005Z,27.50
2018-01-04T11:49:20.797Z,28.70
2018-01-04T11:50:21.150Z,28.50
2018-01-04T11:51:20.898Z,29.30
2018-01-04T11:53:21.088Z,32.60
2018-01-04T11:54:20.988Z,33.90
2018-01-04T11:55:21.035Z,32.70
2018-01-04T11:56:21.039Z,35.80
2018-01-04T11:57:21.080Z,33.70
2018-01-04T11:58:21.185Z,36.70
2018-01-04T11:59:21.328Z,36.20
2018-01-04T12:00:21.189Z,36.50
2018-01-04T12:01:21.455Z,37.50
2018-01-04T12:02:21.246Z,38.60
2018-01-04T12:03:21.293Z,39.40
2018-01-04T12:04:21.337Z,39.70
2018-01-04T12:05:21.336Z,39.20
2018-01-04T12:06:21.451Z,41.30
2018-01-04T12:07:21.621Z,39.80
2018-01-04T12:08:21.445Z,38.70
2018-01-04T12:09:21.484Z,40.20
2018-01-04T12:10:21.535Z,39.90
2018-01-04T12:11:21.538Z,41.10
2018-01-04T12:12:21.592Z,45.80
2018-01-04T12:13:21.643Z,45.30
2018-01-04T12:14:21.639Z,42.20
2018-01-04T12:15:21.691Z,42.60
2018-01-04T12:16:21.729Z,43.00
2018-01-04T12:17:21.747Z,40.90
2018-01-04T12:18:21.787Z,40.60
2018-01-04T12:19:21.826Z,40.30
2018-01-04T12:20:22.049Z,39.10
2018-01-04T12:21:22.076Z,41.50
2018-01-04T12:22:21.940Z,42.90
2018-01-04T12:23:21.936Z,41.20
2018-01-04T12:24:21.981Z,42.10
2018-01-04T12:25:22.034Z,42.30
2018-01-04T12:26:22.035Z,42.40
2018-01-04T12:27:22.096Z,40.80
2018-01-04T12:28:22.142Z,41.50
2018-01-04T12:29:22.142Z,41.60
2018-01-04T12:30:22.170Z,44.30
2018-01-04T12:31:22.212Z,42.10
2018-01-04T12:32:22.258Z,42.10
2018-01-04T12:33:22.276Z,43.50
2018-01-04T12:34:22.329Z,42.40
2018-01-04T12:35:22.373Z,42.10
2018-01-04T12:36:22.378Z,44.00
2018-01-04T12:37:22.407Z,44.50
2018-01-04T12:38:22.467Z,46.80
2018-01-04T12:39:22.479Z,42.20
2018-01-04T12:40:22.717Z,44.50
2018-01-04T12:41:22.561Z,46.90
2018-01-04T12:42:22.555Z,47.30
2018-01-04T12:43:22.617Z,45.10
2018-01-04T12:44:22.662Z,45.80
2018-01-04T12:45:22.662Z,44.10
2018-01-04T12:46:22.909Z,43.50
2018-01-04T12:47:22.761Z,43.40
2018-01-04T12:48:22.766Z,43.60
2018-01-04T12:49:22.820Z,42.70
2018-01-04T12:50:22.873Z,42.60
2018-01-04T12:51:22.863Z,41.80
2018-01-04T12:52:23.233Z,42.20
2018-01-04T12:53:22.963Z,41.40
2018-01-04T12:54:22.957Z,41.40
2018-01-04T12:55:23.021Z,42.00